LFPG/CDG METAR and TAF weather

Enter ICAO airport designator
Station Type Date Time Source
LFPG METAR 2020/09/22 01:30 UTC NOAA

LFPG 220130Z 01008KT 360V090 CAVOK 13/09 Q1014 NOSIG


Station Type Date Time Source
LFPG Decoded METAR 2020/09/22 01:30 UTC NOAA

Paris-Aeroport Charles De Gaulle, France (LFPG) 49-01N 002-32E 109M
Sep 21, 2020 - 09:30 PM EDT / 2020.09.22 0130 UTC
Wind: from the N (010 degrees) at 9 MPH (8 KT) (direction variable):0
Visibility: greater than 7 mile(s):0
Temperature: 55 F (13 C)
Dew Point: 48 F (9 C)
Relative Humidity: 76%
Pressure (altimeter): 29.94 in. Hg (1014 hPa)
ob: LFPG 220130Z 01008KT 360V090 CAVOK 13/09 Q1014 NOSIG
cycle: 1

Station Type Date Time Source
LFPG TAF 2020/09/22 00:47 UTC NOAA

TAF
AMD LFPG 220033Z 2200/2306 35005KT CAVOK TX27/2215Z TN11/2206Z PROB30
TEMPO 2204/2206 4000 BR
BECMG 2210/2212 23010KT PROB30
TEMPO 2219/2224 4000 SHRA SCT020CB PROB40
TEMPO 2303/2306 BKN012

Example: see airport list